sensor_id;sensor_type;location;lat;lon;timestamp;pressure;altitude;pressure_sealevel;temperature;humidity
70254;BME280;57649;42.968;1.608;2023-01-19T00:00:36;96740.28;;;1.47;88.07
70254;BME280;57649;42.968;1.608;2023-01-19T00:03:03;96731.34;;;1.59;85.13
70254;BME280;57649;42.968;1.608;2023-01-19T00:05:29;96731.28;;;1.70;82.48
70254;BME280;57649;42.968;1.608;2023-01-19T00:07:55;96732.69;;;1.75;83.21
70254;BME280;57649;42.968;1.608;2023-01-19T00:10:20;96726.38;;;1.66;79.66
70254;BME280;57649;42.968;1.608;2023-01-19T00:12:45;96711.31;;;1.78;77.45
70254;BME280;57649;42.968;1.608;2023-01-19T00:15:11;96727.34;;;1.65;80.76
70254;BME280;57649;42.968;1.608;2023-01-19T00:17:36;96723.38;;;1.70;79.03
70254;BME280;57649;42.968;1.608;2023-01-19T00:20:06;96728.31;;;1.64;79.15
70254;BME280;57649;42.968;1.608;2023-01-19T00:22:31;96730.31;;;1.71;78.99
70254;BME280;57649;42.968;1.608;2023-01-19T00:24:57;96728.66;;;1.70;86.10
70254;BME280;57649;42.968;1.608;2023-01-19T00:27:22;96731.75;;;1.54;82.02
70254;BME280;57649;42.968;1.608;2023-01-19T00:29:48;96735.09;;;1.57;91.52
70254;BME280;57649;42.968;1.608;2023-01-19T00:32:14;96740.81;;;1.62;92.80
70254;BME280;57649;42.968;1.608;2023-01-19T00:34:42;96736.44;;;1.51;93.46
70254;BME280;57649;42.968;1.608;2023-01-19T00:37:14;96731.16;;;1.51;91.41
70254;BME280;57649;42.968;1.608;2023-01-19T00:39:40;96724.53;;;1.57;82.21
70254;BME280;57649;42.968;1.608;2023-01-19T00:42:07;96734.88;;;1.69;78.42
70254;BME280;57649;42.968;1.608;2023-01-19T00:44:52;96726.97;;;1.69;83.80
70254;BME280;57649;42.968;1.608;2023-01-19T00:47:17;96723.38;;;1.70;85.20
70254;BME280;57649;42.968;1.608;2023-01-19T00:49:43;96723.75;;;1.66;88.93
70254;BME280;57649;42.968;1.608;2023-01-19T00:52:08;96714.03;;;1.66;84.91
70254;BME280;57649;42.968;1.608;2023-01-19T00:54:33;96725.59;;;1.75;85.39
70254;BME280;57649;42.968;1.608;2023-01-19T00:56:59;96708.94;;;1.75;80.83
70254;BME280;57649;42.968;1.608;2023-01-19T00:59:24;96706.19;;;1.76;84.70
70254;BME280;57649;42.968;1.608;2023-01-19T01:01:50;96716.47;;;1.79;88.09
70254;BME280;57649;42.968;1.608;2023-01-19T01:04:15;96712.75;;;1.82;87.68
70254;BME280;57649;42.968;1.608;2023-01-19T01:06:41;96718.81;;;1.72;85.69
70254;BME280;57649;42.968;1.608;2023-01-19T01:09:06;96721.69;;;1.69;86.78
70254;BME280;57649;42.968;1.608;2023-01-19T01:11:42;96712.38;;;1.65;90.28
70254;BME280;57649;42.968;1.608;2023-01-19T01:14:11;96719.50;;;1.53;91.34
70254;BME280;57649;42.968;1.608;2023-01-19T01:16:36;96708.31;;;1.40;93.09
70254;BME280;57649;42.968;1.608;2023-01-19T01:19:02;96733.38;;;1.56;94.25
70254;BME280;57649;42.968;1.608;2023-01-19T01:21:27;96732.22;;;1.48;89.90
70254;BME280;57649;42.968;1.608;2023-01-19T01:23:53;96721.97;;;1.45;90.92
70254;BME280;57649;42.968;1.608;2023-01-19T01:26:18;96746.91;;;1.41;93.18
70254;BME280;57649;42.968;1.608;2023-01-19T01:28:44;96748.81;;;1.39;94.03
70254;BME280;57649;42.968;1.608;2023-01-19T01:31:09;96758.44;;;1.61;86.43
70254;BME280;57649;42.968;1.608;2023-01-19T01:33:34;96766.53;;;1.69;81.04
70254;BME280;57649;42.968;1.608;2023-01-19T01:36:00;96792.50;;;1.85;79.24
70254;BME280;57649;42.968;1.608;2023-01-19T01:38:25;96780.78;;;1.78;81.36
70254;BME280;57649;42.968;1.608;2023-01-19T01:40:51;96787.31;;;1.63;87.66
70254;BME280;57649;42.968;1.608;2023-01-19T01:43:18;96798.66;;;1.21;94.69
70254;BME280;57649;42.968;1.608;2023-01-19T01:45:45;96790.34;;;0.82;99.57
70254;BME280;57649;42.968;1.608;2023-01-19T01:50:50;96777.22;;;0.60;100.00
70254;BME280;57649;42.968;1.608;2023-01-19T01:53:38;96783.19;;;0.62;100.00
70254;BME280;57649;42.968;1.608;2023-01-19T01:56:09;96778.78;;;0.51;100.00
70254;BME280;57649;42.968;1.608;2023-01-19T01:58:37;96781.53;;;0.49;100.00
70254;BME280;57649;42.968;1.608;2023-01-19T02:01:04;96791.81;;;0.64;100.00
70254;BME280;57649;42.968;1.608;2023-01-19T02:03:49;96783.44;;;0.70;100.00
70254;BME280;57649;42.968;1.608;2023-01-19T02:06:15;96784.03;;;0.62;100.00
70254;BME280;57649;42.968;1.608;2023-01-19T02:08:46;96793.03;;;0.60;100.00
70254;BME280;57649;42.968;1.608;2023-01-19T02:11:31;96793.25;;;0.68;100.00
70254;BME280;57649;42.968;1.608;2023-01-19T02:14:16;96788.84;;;0.57;100.00
70254;BME280;57649;42.968;1.608;2023-01-19T02:16:43;96805.34;;;0.70;100.00
70254;BME280;57649;42.968;1.608;2023-01-19T02:19:12;96806.63;;;0.87;100.00
70254;BME280;57649;42.968;1.608;2023-01-19T02:22:00;96804.72;;;0.89;100.00
70254;BME280;57649;42.968;1.608;2023-01-19T02:24:29;96807.09;;;0.92;100.00
70254;BME280;57649;42.968;1.608;2023-01-19T02:26:55;96819.06;;;0.96;100.00
70254;BME280;57649;42.968;1.608;2023-01-19T02:29:23;96818.00;;;0.99;100.00
70254;BME280;57649;42.968;1.608;2023-01-19T02:31:49;96818.13;;;0.98;100.00
70254;BME280;57649;42.968;1.608;2023-01-19T02:34:18;96814.28;;;1.02;100.00
70254;BME280;57649;42.968;1.608;2023-01-19T02:36:49;96817.03;;;1.00;100.00
70254;BME280;57649;42.968;1.608;2023-01-19T02:39:19;96802.31;;;0.98;100.00
70254;BME280;57649;42.968;1.608;2023-01-19T02:42:02;96803.50;;;1.05;100.00
70254;BME280;57649;42.968;1.608;2023-01-19T02:44:29;96803.84;;;1.00;100.00
70254;BME280;57649;42.968;1.608;2023-01-19T02:46:55;96805.16;;;1.06;100.00
70254;BME280;57649;42.968;1.608;2023-01-19T02:49:21;96806.97;;;1.05;100.00
70254;BME280;57649;42.968;1.608;2023-01-19T02:51:47;96820.69;;;1.20;100.00
70254;BME280;57649;42.968;1.608;2023-01-19T03:13:16;96809.63;;;1.38;98.88
70254;BME280;57649;42.968;1.608;2023-01-19T03:15:50;96817.06;;;1.32;100.00
70254;BME280;57649;42.968;1.608;2023-01-19T03:18:21;96819.25;;;1.27;100.00
70254;BME280;57649;42.968;1.608;2023-01-19T03:20:50;96820.47;;;1.23;100.00
70254;BME280;57649;42.968;1.608;2023-01-19T03:23:20;96835.69;;;1.20;100.00
70254;BME280;57649;42.968;1.608;2023-01-19T03:25:49;96835.09;;;1.16;100.00
70254;BME280;57649;42.968;1.608;2023-01-19T03:28:19;96840.69;;;1.23;100.00
70254;BME280;57649;42.968;1.608;2023-01-19T03:30:48;96832.22;;;1.19;100.00
70254;BME280;57649;42.968;1.608;2023-01-19T03:33:22;96832.53;;;1.69;87.58
70254;BME280;57649;42.968;1.608;2023-01-19T03:35:53;96815.66;;;1.82;87.00
70254;BME280;57649;42.968;1.608;2023-01-19T03:38:25;96818.44;;;1.80;87.44
70254;BME280;57649;42.968;1.608;2023-01-19T03:40:54;96813.63;;;1.85;87.29
70254;BME280;57649;42.968;1.608;2023-01-19T03:43:22;96810.06;;;1.75;90.64
70254;BME280;57649;42.968;1.608;2023-01-19T03:45:50;96824.94;;;1.76;91.19
70254;BME280;57649;42.968;1.608;2023-01-19T03:48:18;96813.22;;;1.69;89.56
70254;BME280;57649;42.968;1.608;2023-01-19T03:50:45;96832.16;;;1.95;84.68
70254;BME280;57649;42.968;1.608;2023-01-19T03:53:12;96817.13;;;1.96;86.96
70254;BME280;57649;42.968;1.608;2023-01-19T03:55:41;96820.13;;;2.02;85.21
70254;BME280;57649;42.968;1.608;2023-01-19T03:58:07;96821.59;;;1.95;86.60
70254;BME280;57649;42.968;1.608;2023-01-19T04:00:33;96825.63;;;1.99;86.58
70254;BME280;57649;42.968;1.608;2023-01-19T04:03:01;96828.94;;;1.91;88.40
70254;BME280;57649;42.968;1.608;2023-01-19T04:05:27;96818.38;;;1.91;85.70
70254;BME280;57649;42.968;1.608;2023-01-19T04:07:52;96817.84;;;1.98;84.57
70254;BME280;57649;42.968;1.608;2023-01-19T04:10:18;96813.91;;;1.92;88.29
70254;BME280;57649;42.968;1.608;2023-01-19T04:12:44;96817.47;;;2.02;88.49
70254;BME280;57649;42.968;1.608;2023-01-19T04:15:10;96828.41;;;1.98;87.10
70254;BME280;57649;42.968;1.608;2023-01-19T04:17:36;96829.84;;;2.02;86.51
70254;BME280;57649;42.968;1.608;2023-01-19T04:20:02;96820.75;;;1.95;86.62
70254;BME280;57649;42.968;1.608;2023-01-19T04:22:27;96835.03;;;1.92;88.53
70254;BME280;57649;42.968;1.608;2023-01-19T04:24:53;96834.66;;;1.97;86.13
70254;BME280;57649;42.968;1.608;2023-01-19T04:27:19;96847.91;;;2.06;87.06
70254;BME280;57649;42.968;1.608;2023-01-19T04:29:45;96844.34;;;2.07;86.75
70254;BME280;57649;42.968;1.608;2023-01-19T04:32:12;96853.66;;;2.11;88.07
70254;BME280;57649;42.968;1.608;2023-01-19T04:34:37;96850.44;;;2.08;87.08
70254;BME280;57649;42.968;1.608;2023-01-19T04:37:03;96857.31;;;1.99;88.06
70254;BME280;57649;42.968;1.608;2023-01-19T04:39:28;96863.97;;;2.15;86.78
70254;BME280;57649;42.968;1.608;2023-01-19T04:41:54;96867.88;;;1.99;85.63
70254;BME280;57649;42.968;1.608;2023-01-19T04:44:21;96859.59;;;2.04;85.11
70254;BME280;57649;42.968;1.608;2023-01-19T04:46:47;96855.72;;;2.08;86.67
70254;BME280;57649;42.968;1.608;2023-01-19T04:49:12;96868.91;;;2.08;86.43
70254;BME280;57649;42.968;1.608;2023-01-19T04:51:38;96865.19;;;2.10;85.86
70254;BME280;57649;42.968;1.608;2023-01-19T04:54:04;96876.84;;;2.08;86.46
70254;BME280;57649;42.968;1.608;2023-01-19T04:56:29;96870.59;;;2.09;84.77
70254;BME280;57649;42.968;1.608;2023-01-19T04:58:54;96869.03;;;2.06;87.71
70254;BME280;57649;42.968;1.608;2023-01-19T05:01:20;96865.44;;;2.07;85.87
70254;BME280;57649;42.968;1.608;2023-01-19T05:03:45;96867.38;;;2.05;87.83
70254;BME280;57649;42.968;1.608;2023-01-19T05:06:11;96868.16;;;1.96;87.96
70254;BME280;57649;42.968;1.608;2023-01-19T05:08:37;96879.03;;;2.03;85.98
70254;BME280;57649;42.968;1.608;2023-01-19T05:11:03;96869.03;;;2.06;86.08
70254;BME280;57649;42.968;1.608;2023-01-19T05:13:28;96891.59;;;2.10;86.68
70254;BME280;57649;42.968;1.608;2023-01-19T05:15:54;96874.25;;;2.18;85.57
70254;BME280;57649;42.968;1.608;2023-01-19T05:18:19;96879.53;;;2.18;86.89
70254;BME280;57649;42.968;1.608;2023-01-19T05:20:44;96883.53;;;2.12;85.77
70254;BME280;57649;42.968;1.608;2023-01-19T05:23:10;96905.25;;;2.16;85.40
70254;BME280;57649;42.968;1.608;2023-01-19T05:25:35;96901.38;;;2.20;84.04
70254;BME280;57649;42.968;1.608;2023-01-19T05:28:01;96900.94;;;2.15;86.74
70254;BME280;57649;42.968;1.608;2023-01-19T05:30:27;96899.25;;;2.14;85.85
70254;BME280;57649;42.968;1.608;2023-01-19T05:32:53;96897.19;;;2.17;87.72
70254;BME280;57649;42.968;1.608;2023-01-19T05:35:18;96889.91;;;2.09;87.28
70254;BME280;57649;42.968;1.608;2023-01-19T05:37:44;96895.44;;;2.06;87.69
70254;BME280;57649;42.968;1.608;2023-01-19T05:40:10;96904.34;;;2.05;87.25
70254;BME280;57649;42.968;1.608;2023-01-19T05:42:36;96901.44;;;2.08;86.19
70254;BME280;57649;42.968;1.608;2023-01-19T05:45:02;96914.00;;;2.16;86.74
70254;BME280;57649;42.968;1.608;2023-01-19T05:47:28;96895.66;;;2.15;84.87
70254;BME280;57649;42.968;1.608;2023-01-19T05:49:54;96905.75;;;2.09;87.37
70254;BME280;57649;42.968;1.608;2023-01-19T05:52:19;96913.22;;;2.04;88.69
70254;BME280;57649;42.968;1.608;2023-01-19T05:54:46;96894.03;;;2.02;86.65
70254;BME280;57649;42.968;1.608;2023-01-19T05:57:12;96900.47;;;2.09;88.34
70254;BME280;57649;42.968;1.608;2023-01-19T05:59:38;96897.38;;;2.04;86.62
70254;BME280;57649;42.968;1.608;2023-01-19T06:02:04;96898.25;;;2.26;85.96
70254;BME280;57649;42.968;1.608;2023-01-19T06:04:29;96897.53;;;2.24;84.87
70254;BME280;57649;42.968;1.608;2023-01-19T06:06:57;96887.56;;;2.27;85.44
70254;BME280;57649;42.968;1.608;2023-01-19T06:09:23;96904.75;;;2.22;86.03
70254;BME280;57649;42.968;1.608;2023-01-19T06:11:48;96886.31;;;2.10;88.35
70254;BME280;57649;42.968;1.608;2023-01-19T06:14:14;96902.47;;;2.17;89.76
70254;BME280;57649;42.968;1.608;2023-01-19T06:16:39;96890.88;;;2.08;88.19
70254;BME280;57649;42.968;1.608;2023-01-19T06:19:05;96899.72;;;2.19;84.87
70254;BME280;57649;42.968;1.608;2023-01-19T06:21:31;96897.25;;;2.27;87.49
70254;BME280;57649;42.968;1.608;2023-01-19T06:23:56;96899.19;;;2.25;88.71
70254;BME280;57649;42.968;1.608;2023-01-19T06:26:22;96900.38;;;2.11;86.90
70254;BME280;57649;42.968;1.608;2023-01-19T06:28:50;96908.72;;;2.16;88.36
70254;BME280;57649;42.968;1.608;2023-01-19T06:31:16;96907.19;;;2.14;87.49
70254;BME280;57649;42.968;1.608;2023-01-19T06:33:42;96911.44;;;2.26;86.02
70254;BME280;57649;42.968;1.608;2023-01-19T06:36:08;96905.13;;;2.17;87.69
70254;BME280;57649;42.968;1.608;2023-01-19T06:38:33;96908.88;;;2.15;89.99
70254;BME280;57649;42.968;1.608;2023-01-19T06:40:59;96910.28;;;2.19;85.80
70254;BME280;57649;42.968;1.608;2023-01-19T06:43:27;96908.34;;;2.21;84.84
70254;BME280;57649;42.968;1.608;2023-01-19T06:45:53;96913.63;;;2.21;85.60
70254;BME280;57649;42.968;1.608;2023-01-19T06:48:19;96930.50;;;2.29;84.87
70254;BME280;57649;42.968;1.608;2023-01-19T06:50:45;96928.94;;;2.27;84.24
70254;BME280;57649;42.968;1.608;2023-01-19T06:53:11;96934.75;;;2.21;87.42
70254;BME280;57649;42.968;1.608;2023-01-19T06:55:36;96922.00;;;2.26;87.76
70254;BME280;57649;42.968;1.608;2023-01-19T06:58:03;96937.03;;;2.25;86.54
70254;BME280;57649;42.968;1.608;2023-01-19T07:00:29;96947.25;;;2.19;87.81
70254;BME280;57649;42.968;1.608;2023-01-19T07:02:55;96939.28;;;2.30;88.20
70254;BME280;57649;42.968;1.608;2023-01-19T07:05:20;96935.16;;;2.37;86.58
70254;BME280;57649;42.968;1.608;2023-01-19T07:07:56;96938.25;;;2.42;86.05
70254;BME280;57649;42.968;1.608;2023-01-19T07:10:22;96934.31;;;2.37;88.02
70254;BME280;57649;42.968;1.608;2023-01-19T07:12:48;96944.19;;;2.35;88.53
70254;BME280;57649;42.968;1.608;2023-01-19T07:15:15;96944.19;;;2.35;90.00
70254;BME280;57649;42.968;1.608;2023-01-19T07:17:42;96940.69;;;2.34;89.59
70254;BME280;57649;42.968;1.608;2023-01-19T07:20:09;96940.69;;;2.34;89.60
70254;BME280;57649;42.968;1.608;2023-01-19T07:22:37;96939.03;;;2.33;88.69
70254;BME280;57649;42.968;1.608;2023-01-19T07:25:03;96949.25;;;2.26;90.13
70254;BME280;57649;42.968;1.608;2023-01-19T07:27:29;96946.03;;;2.23;91.19
70254;BME280;57649;42.968;1.608;2023-01-19T07:29:54;96939.22;;;2.20;89.18
70254;BME280;57649;42.968;1.608;2023-01-19T07:32:20;96949.38;;;2.25;90.24
70254;BME280;57649;42.968;1.608;2023-01-19T07:34:45;96951.31;;;2.23;91.24
70254;BME280;57649;42.968;1.608;2023-01-19T07:37:10;96951.25;;;2.34;87.71
70254;BME280;57649;42.968;1.608;2023-01-19T07:39:36;96954.66;;;2.25;87.87
70254;BME280;57649;42.968;1.608;2023-01-19T07:42:01;96951.53;;;2.31;84.32
70254;BME280;57649;42.968;1.608;2023-01-19T07:44:27;96956.88;;;2.41;86.73
70254;BME280;57649;42.968;1.608;2023-01-19T07:46:52;96957.00;;;2.39;86.12
70254;BME280;57649;42.968;1.608;2023-01-19T07:49:18;96961.63;;;2.47;87.62
70254;BME280;57649;42.968;1.608;2023-01-19T07:51:44;96961.91;;;2.44;87.04
70254;BME280;57649;42.968;1.608;2023-01-19T07:54:10;96966.84;;;2.58;82.27
70254;BME280;57649;42.968;1.608;2023-01-19T07:56:35;96968.34;;;2.72;80.32
70254;BME280;57649;42.968;1.608;2023-01-19T07:59:01;96949.00;;;2.72;81.52
70254;BME280;57649;42.968;1.608;2023-01-19T08:01:26;96959.63;;;2.81;83.09
70254;BME280;57649;42.968;1.608;2023-01-19T08:03:52;96953.97;;;2.86;82.26
70254;BME280;57649;42.968;1.608;2023-01-19T08:06:20;96966.84;;;2.79;82.84
70254;BME280;57649;42.968;1.608;2023-01-19T08:08:46;96971.59;;;2.85;79.52
70254;BME280;57649;42.968;1.608;2023-01-19T08:11:12;96956.31;;;2.89;79.99
70254;BME280;57649;42.968;1.608;2023-01-19T08:13:37;96962.47;;;2.89;81.94
70254;BME280;57649;42.968;1.608;2023-01-19T08:16:03;96961.94;;;2.96;82.75
70254;BME280;57649;42.968;1.608;2023-01-19T08:18:29;96965.97;;;3.00;81.04
70254;BME280;57649;42.968;1.608;2023-01-19T08:20:54;96964.16;;;3.00;81.54
70254;BME280;57649;42.968;1.608;2023-01-19T08:23:22;96970.31;;;3.01;82.22
70254;BME280;57649;42.968;1.608;2023-01-19T08:25:47;96964.63;;;3.05;83.11
70254;BME280;57649;42.968;1.608;2023-01-19T08:28:14;96975.63;;;3.11;83.77
70254;BME280;57649;42.968;1.608;2023-01-19T08:30:40;96981.50;;;3.14;83.72
70254;BME280;57649;42.968;1.608;2023-01-19T08:33:07;96973.25;;;3.07;79.75
70254;BME280;57649;42.968;1.608;2023-01-19T08:35:35;96977.47;;;3.10;81.55
70254;BME280;57649;42.968;1.608;2023-01-19T08:38:02;96983.13;;;3.05;81.08
70254;BME280;57649;42.968;1.608;2023-01-19T08:40:32;96983.31;;;3.14;80.12
70254;BME280;57649;42.968;1.608;2023-01-19T08:43:01;96979.88;;;3.23;83.04
70254;BME280;57649;42.968;1.608;2023-01-19T08:45:33;96987.94;;;3.21;82.48
70254;BME280;57649;42.968;1.608;2023-01-19T08:47:59;96991.28;;;3.23;80.21
70254;BME280;57649;42.968;1.608;2023-01-19T08:50:27;97002.19;;;3.30;78.79
70254;BME280;57649;42.968;1.608;2023-01-19T08:52:55;96987.16;;;3.31;78.67
70254;BME280;57649;42.968;1.608;2023-01-19T08:55:22;96998.78;;;3.49;80.26
70254;BME280;57649;42.968;1.608;2023-01-19T08:57:56;96981.06;;;3.50;76.97
70254;BME280;57649;42.968;1.608;2023-01-19T09:00:23;96986.25;;;3.51;80.99
70254;BME280;57649;42.968;1.608;2023-01-19T09:02:50;96974.97;;;3.49;74.16
70254;BME280;57649;42.968;1.608;2023-01-19T09:05:16;96973.84;;;3.52;73.37
70254;BME280;57649;42.968;1.608;2023-01-19T09:07:45;96995.19;;;3.60;74.17
70254;BME280;57649;42.968;1.608;2023-01-19T09:10:14;96994.06;;;3.62;74.98
70254;BME280;57649;42.968;1.608;2023-01-19T09:12:40;96992.81;;;3.57;75.56
70254;BME280;57649;42.968;1.608;2023-01-19T09:15:06;96994.50;;;3.67;74.15
70254;BME280;57649;42.968;1.608;2023-01-19T09:17:32;96991.75;;;3.79;73.04
70254;BME280;57649;42.968;1.608;2023-01-19T09:19:57;96995.78;;;3.73;72.54
70254;BME280;57649;42.968;1.608;2023-01-19T09:22:23;96996.38;;;3.87;72.86
70254;BME280;57649;42.968;1.608;2023-01-19T09:24:49;96993.03;;;3.84;69.82
70254;BME280;57649;42.968;1.608;2023-01-19T09:27:14;96990.94;;;3.88;73.46
70254;BME280;57649;42.968;1.608;2023-01-19T09:29:40;96995.97;;;3.91;73.36
70254;BME280;57649;42.968;1.608;2023-01-19T09:32:05;96996.84;;;4.01;74.15
70254;BME280;57649;42.968;1.608;2023-01-19T09:34:31;96999.06;;;3.96;74.88
70254;BME280;57649;42.968;1.608;2023-01-19T09:36:56;96994.59;;;3.97;71.04
70254;BME280;57649;42.968;1.608;2023-01-19T09:39:21;97004.91;;;4.00;74.92
70254;BME280;57649;42.968;1.608;2023-01-19T09:41:59;96996.56;;;4.14;76.73
70254;BME280;57649;42.968;1.608;2023-01-19T09:44:32;96998.78;;;4.19;75.47
70254;BME280;57649;42.968;1.608;2023-01-19T09:47:01;96999.34;;;4.22;71.86
70254;BME280;57649;42.968;1.608;2023-01-19T09:49:35;96990.16;;;4.27;75.20
70254;BME280;57649;42.968;1.608;2023-01-19T09:52:02;96981.66;;;4.42;76.40
70254;BME280;57649;42.968;1.608;2023-01-19T09:54:32;96992.53;;;4.49;75.52
70254;BME280;57649;42.968;1.608;2023-01-19T09:57:00;96991.41;;;4.42;71.03
70254;BME280;57649;42.968;1.608;2023-01-19T09:59:28;96986.25;;;4.50;72.11
70254;BME280;57649;42.968;1.608;2023-01-19T10:04:42;96980.38;;;4.47;70.75
70254;BME280;57649;42.968;1.608;2023-01-19T10:07:12;96982.06;;;4.67;69.06
70254;BME280;57649;42.968;1.608;2023-01-19T10:10:19;96979.56;;;4.66;69.98
70254;BME280;57649;42.968;1.608;2023-01-19T10:16:29;96966.16;;;4.67;65.43
70254;BME280;57649;42.968;1.608;2023-01-19T10:18:47;96959.56;;;4.81;65.88
70254;BME280;57649;42.968;1.608;2023-01-19T10:21:22;96970.53;;;4.96;68.13
70254;BME280;57649;42.968;1.608;2023-01-19T10:26:55;96968.03;;;5.04;66.01
70254;BME280;57649;42.968;1.608;2023-01-19T10:34:26;96959.28;;;5.21;68.78
70254;BME280;57649;42.968;1.608;2023-01-19T10:36:58;96959.28;;;5.21;66.07
70254;BME280;57649;42.968;1.608;2023-01-19T10:39:26;96956.72;;;5.02;67.21
70254;BME280;57649;42.968;1.608;2023-01-19T10:41:52;96950.69;;;5.10;68.32
70254;BME280;57649;42.968;1.608;2023-01-19T10:44:28;96947.94;;;5.29;69.16
70254;BME280;57649;42.968;1.608;2023-01-19T10:46:59;96946.09;;;5.39;67.17
70254;BME280;57649;42.968;1.608;2023-01-19T10:49:45;96937.03;;;5.60;66.96
70254;BME280;57649;42.968;1.608;2023-01-19T10:54:54;96915.47;;;5.45;63.90
70254;BME280;57649;42.968;1.608;2023-01-19T10:57:40;96912.53;;;5.48;62.74
70254;BME280;57649;42.968;1.608;2023-01-19T11:00:48;96906.31;;;5.57;64.71
70254;BME280;57649;42.968;1.608;2023-01-19T11:03:23;96896.47;;;5.68;66.03
70254;BME280;57649;42.968;1.608;2023-01-19T11:05:49;96898.59;;;5.82;65.29
70254;BME280;57649;42.968;1.608;2023-01-19T11:08:29;96889.81;;;5.82;65.70
70254;BME280;57649;42.968;1.608;2023-01-19T11:11:00;96885.50;;;5.98;63.87
70254;BME280;57649;42.968;1.608;2023-01-19T11:13:27;96876.44;;;5.91;64.08
70254;BME280;57649;42.968;1.608;2023-01-19T11:15:58;96866.66;;;5.92;62.46
70254;BME280;57649;42.968;1.608;2023-01-19T11:18:38;96869.75;;;5.87;62.59
70254;BME280;57649;42.968;1.608;2023-01-19T11:21:14;96858.63;;;6.02;61.16
70254;BME280;57649;42.968;1.608;2023-01-19T11:23:45;96872.06;;;6.18;59.08
70254;BME280;57649;42.968;1.608;2023-01-19T11:26:41;96846.16;;;6.20;56.95
70254;BME280;57649;42.968;1.608;2023-01-19T11:31:42;96840.72;;;6.48;55.67
70254;BME280;57649;42.968;1.608;2023-01-19T11:34:34;96836.00;;;6.68;56.90
70254;BME280;57649;42.968;1.608;2023-01-19T11:37:22;96827.81;;;6.87;57.58
70254;BME280;57649;42.968;1.608;2023-01-19T11:39:51;96814.78;;;6.76;58.96
70254;BME280;57649;42.968;1.608;2023-01-19T11:42:17;96806.22;;;6.64;56.40
70254;BME280;57649;42.968;1.608;2023-01-19T11:47:47;96794.69;;;6.82;57.63
70254;BME280;57649;42.968;1.608;2023-01-19T11:50:28;96787.31;;;6.67;57.42
70254;BME280;57649;42.968;1.608;2023-01-19T11:53:03;96779.34;;;6.67;56.80
70254;BME280;57649;42.968;1.608;2023-01-19T11:55:41;96773.34;;;6.65;56.72
70254;BME280;57649;42.968;1.608;2023-01-19T11:58:15;96756.72;;;6.71;54.96
70254;BME280;57649;42.968;1.608;2023-01-19T12:01:05;96750.03;;;7.02;59.28
70254;BME280;57649;42.968;1.608;2023-01-19T12:04:02;96734.31;;;7.33;60.73
70254;BME280;57649;42.968;1.608;2023-01-19T12:06:36;96724.34;;;7.51;57.48
70254;BME280;57649;42.968;1.608;2023-01-19T12:11:36;96702.34;;;7.99;56.28
70254;BME280;57649;42.968;1.608;2023-01-19T12:14:12;96709.00;;;7.78;57.55
70254;BME280;57649;42.968;1.608;2023-01-19T12:16:41;96701.47;;;8.15;59.87
70254;BME280;57649;42.968;1.608;2023-01-19T12:19:16;96696.66;;;8.10;58.63
70254;BME280;57649;42.968;1.608;2023-01-19T12:21:49;96681.94;;;8.22;58.66
70254;BME280;57649;42.968;1.608;2023-01-19T12:24:24;96694.47;;;8.14;56.23
70254;BME280;57649;42.968;1.608;2023-01-19T12:27:06;96675.53;;;7.92;56.65
70254;BME280;57649;42.968;1.608;2023-01-19T12:29:38;96662.91;;;7.61;54.34
70254;BME280;57649;42.968;1.608;2023-01-19T12:37:32;96658.91;;;7.49;55.56
70254;BME280;57649;42.968;1.608;2023-01-19T12:40:12;96651.75;;;7.33;53.37
70254;BME280;57649;42.968;1.608;2023-01-19T12:45:22;96640.75;;;7.11;52.24
70254;BME280;57649;42.968;1.608;2023-01-19T12:47:53;96631.78;;;7.21;54.70
70254;BME280;57649;42.968;1.608;2023-01-19T12:50:21;96624.13;;;7.09;53.45
70254;BME280;57649;42.968;1.608;2023-01-19T12:52:56;96629.59;;;7.16;53.52
70254;BME280;57649;42.968;1.608;2023-01-19T12:55:30;96620.31;;;7.28;52.61
70254;BME280;57649;42.968;1.608;2023-01-19T12:58:01;96617.63;;;7.28;53.79
70254;BME280;57649;42.968;1.608;2023-01-19T13:00:31;96603.00;;;7.24;54.04
70254;BME280;57649;42.968;1.608;2023-01-19T13:03:02;96609.50;;;7.30;53.28
70254;BME280;57649;42.968;1.608;2023-01-19T13:13:28;96598.84;;;7.22;57.04
70254;BME280;57649;42.968;1.608;2023-01-19T13:15:56;96585.53;;;7.22;56.35
70254;BME280;57649;42.968;1.608;2023-01-19T13:18:32;96578.84;;;7.34;55.29
70254;BME280;57649;42.968;1.608;2023-01-19T13:21:07;96580.03;;;7.15;58.38
70254;BME280;57649;42.968;1.608;2023-01-19T13:23:54;96579.38;;;6.97;56.60
70254;BME280;57649;42.968;1.608;2023-01-19T13:26:22;96564.06;;;6.58;57.24
70254;BME280;57649;42.968;1.608;2023-01-19T13:28:51;96563.22;;;6.65;57.23
70254;BME280;57649;42.968;1.608;2023-01-19T13:31:18;96564.41;;;6.87;59.08
70254;BME280;57649;42.968;1.608;2023-01-19T13:36:19;96546.25;;;6.66;60.89
70254;BME280;57649;42.968;1.608;2023-01-19T13:38:48;96547.25;;;6.73;60.01
70254;BME280;57649;42.968;1.608;2023-01-19T13:41:17;96544.94;;;6.62;60.60
70254;BME280;57649;42.968;1.608;2023-01-19T13:43:43;96533.13;;;6.65;61.36
70254;BME280;57649;42.968;1.608;2023-01-19T13:46:13;96535.28;;;6.53;59.47
70254;BME280;57649;42.968;1.608;2023-01-19T13:48:39;96531.94;;;6.59;62.44
70254;BME280;57649;42.968;1.608;2023-01-19T13:51:17;96523.16;;;6.67;61.43
70254;BME280;57649;42.968;1.608;2023-01-19T13:53:53;96511.19;;;6.71;62.42
70254;BME280;57649;42.968;1.608;2023-01-19T13:56:20;96497.56;;;6.58;60.39
70254;BME280;57649;42.968;1.608;2023-01-19T13:59:16;96497.72;;;6.56;60.41
70254;BME280;57649;42.968;1.608;2023-01-19T14:01:43;96491.75;;;6.54;60.99
70254;BME280;57649;42.968;1.608;2023-01-19T14:04:27;96482.09;;;6.61;62.78
70254;BME280;57649;42.968;1.608;2023-01-19T14:06:55;96480.78;;;6.65;62.89
70254;BME280;57649;42.968;1.608;2023-01-19T14:09:22;96468.63;;;6.63;62.86
70254;BME280;57649;42.968;1.608;2023-01-19T14:12:23;96455.19;;;6.56;63.03
70254;BME280;57649;42.968;1.608;2023-01-19T14:14:49;96453.69;;;6.45;63.08
70254;BME280;57649;42.968;1.608;2023-01-19T14:17:29;96460.00;;;6.52;64.02
70254;BME280;57649;42.968;1.608;2023-01-19T14:19:57;96455.81;;;6.66;63.68
70254;BME280;57649;42.968;1.608;2023-01-19T14:22:43;96443.03;;;6.37;62.72
70254;BME280;57649;42.968;1.608;2023-01-19T14:25:29;96429.91;;;6.35;64.97